Richland Center, WI

8:32 AM CDT on August 28, 2015 (GMT -0500)
KWIRICHL5 | | Change Station
CLOSE
Current Station
Personal Weather Station
Location: Richland Center, WI
Elevation: 741 ft
Nearby Weather Stations

Elev 741 ft 43.33 °N, 90.39 °W | Updated 4 minutes ago

Partly Cloudy
Partly Cloudy
60.2 °F
Feels Like 60.2 °F
N
0.0
Wind Variable Wind from SSE
Gusts 0.0 mph

Today
High -- | Low -- °F
--% Chance of Precip.
Yesterday
High -- | Low -- °F
Precip. -- in
6:20 AM 7:43 PM
Waxing Gibbous, 98% visible
Pressure 30.09 in
Visibility 5.0 miles
Clouds Few 12000 ft
Dew Point 58 °F
Humidity 93%
Rainfall 0.00 in
Snow Depth Not available.
UV 1 out of 12
Pollen 3.70 out of 12
Air Quality Not available.
Flu Activity Not available.
METAR KLNR 281256Z AUTO 10006KT 5SM BR FEW120 16/14 A3010 RMK AO2 SLP187 T01560144
Pressure 30.09 in
Visibility 5.0 miles
Clouds Few 12000 ft
Dew Point 58 °F
Humidity 93%
Rainfall 0.00 in
Snow Depth Not available.
UV 1 out of 12
Pollen 3.70 out of 12
Air Quality Not available.
Flu Activity Not available.
METAR KLNR 281256Z AUTO 10006KT 5SM BR FEW120 16/14 A3010 RMK AO2 SLP187 T01560144

10-Day Weather Forecast

×

Almanac

Astronomy

Aug. 28, 2015 Rise Set
Actual Time
Civil Twilight
Nautical Twilight
Astronomical Twilight
Moon
Length of Visible Light
Length of Day
Tomorrow will be .
, % of the Moon is Illuminated

Today's Extremes

State Highs State Lows

Community

WunderPhotos

Upload Photos

1,850,376 photos uploaded!

WunderBlogs® & News

Nearby

Air Quality

  Air Quality AQ Index Pollutant
Not available.

Snow Depth

Station Depth Elevation

Earthquake Activity

City Distance Mag. Time & Date
Minimum magnitude displayed is 2.5.

Coastal Water Temperatures

Place Temperature

Stations

Nearby Weather Stations

Station Location Temp. Windchill Dew Point Humidity Wind Precip. Elev Updated Type